CME weather

Ciudad del Carmen International Airport
Ciudad del Carmen, Campeche, Mexico

Public forecast

Using degrees Celsius for public forecast. Weather courtesy of forecast.io.

METAR (pilot weather report)

Retrieved 2019/06/26 22:43 UTC (38 minutes ago):

MMCE 262243Z 36011KT 7SM FEW025 30/25 A2986 RMK 8/200 DSNT CB SE

TAF (pilot weather forecast)

Retrieved 2019/06/26 18:21 UTC (5 hours ago):

TAF TAF MMCE 261718Z 2618/2718 12012KT P6SM SCT030 FM270000 03010KT P6SM SCT020 BKN300 FM270600 10012KT P6SM SCT015 BKN260